Time;durP1;ratioP1;P1;durP2;ratioP2;P2;SDS_P1;SDS_P2;PMS_P1;PMS_P2;Temp;Humidity;BMP_temperature;BMP_pressure;BME280_temperature;BME280_humidity;BME280_pressure;Samples;Min_cycle;Max_cycle;Signal;HPM_P1;HPM_P2
2021/07/07 00:01:47;;;;;;;;;;;14.30;99.90;;;;;;5095112;28;19930;-87
2021/07/07 00:04:14;;;;;;;;;;;14.30;99.90;;;;;;5095399;28;19920;-86
2021/07/07 00:06:40;;;;;;;;;;;14.30;99.90;;;;;;5095190;28;21929;-87
2021/07/07 00:09:09;;;;;;;;;;;14.30;99.90;;;;;;5095507;28;19920;-84
2021/07/07 00:11:36;;;;;;;;;;;14.30;99.90;;;;;;5095183;28;19934;-85
2021/07/07 00:14:02;;;;;;;;;;;14.30;99.90;;;;;;5095208;28;19930;-84
2021/07/07 00:16:29;;;;;;;;;;;14.30;99.90;;;;;;5095266;28;19946;-85
2021/07/07 00:18:56;;;;;;;;;;;14.30;99.90;;;;;;5101556;28;20270;-85
2021/07/07 00:21:23;;;;;;;;;;;14.30;99.90;;;;;;5115446;28;19929;-84
2021/07/07 00:23:50;;;;;;;;;;;14.30;99.90;;;;;;5115441;28;19930;-87
2021/07/07 00:26:18;;;;;;;;;;;14.30;99.90;;;;;;5115621;28;19949;-85
2021/07/07 00:28:45;;;;;;;;;;;14.20;99.90;;;;;;5115275;28;20374;-86
2021/07/07 00:31:12;;;;;;;;;;;14.20;99.90;;;;;;5115494;28;19926;-86
2021/07/07 00:33:38;;;;;;;;;;;14.20;99.90;;;;;;5115458;28;19930;-86
2021/07/07 00:36:05;;;;;;;;;;;14.20;99.90;;;;;;5118059;28;19920;-86
2021/07/07 00:38:32;;;;;;;;;;;14.10;99.90;;;;;;5119674;28;19920;-86
2021/07/07 00:40:59;;;;;;;;;;;14.10;99.90;;;;;;5119462;28;19924;-86
2021/07/07 00:43:27;;;;;;;;;;;14.10;99.90;;;;;;5119415;28;19930;-86
2021/07/07 00:45:54;;;;;;;;;;;14.10;99.90;;;;;;5119494;28;19920;-86
2021/07/07 00:48:21;;;;;;;;;;;14.10;99.90;;;;;;5118556;28;20251;-86
2021/07/07 00:50:49;;;;;;;;;;;14.20;99.90;;;;;;5119255;28;19920;-86
2021/07/07 00:53:15;;;;;;;;;;;14.20;99.90;;;;;;5119239;28;20259;-86
2021/07/07 00:55:42;;;;;;;;;;;14.10;99.90;;;;;;5119047;28;19920;-86
2021/07/07 00:58:10;;;;;;;;;;;14.20;99.90;;;;;;5119212;28;19930;-85
2021/07/07 01:00:38;;;;;;;;;;;14.20;99.90;;;;;;5119073;28;20007;-86
2021/07/07 01:03:05;;;;;;;;;;;14.20;99.90;;;;;;5119103;28;20347;-86
2021/07/07 01:05:32;;;;;;;;;;;14.20;99.90;;;;;;5119210;28;19919;-86
2021/07/07 01:07:59;;;;;;;;;;;14.20;99.90;;;;;;5118841;28;19930;-86
2021/07/07 01:10:25;;;;;;;;;;;14.20;99.90;;;;;;5118986;28;19930;-86
2021/07/07 01:12:53;;;;;;;;;;;14.20;99.90;;;;;;5118915;28;19920;-85
2021/07/07 01:15:20;;;;;;;;;;;14.20;99.90;;;;;;5118766;28;19926;-86
2021/07/07 01:17:48;;;;;;;;;;;14.20;99.90;;;;;;5118670;28;19920;-86
2021/07/07 01:20:15;;;;;;;;;;;14.20;99.90;;;;;;5118990;28;19950;-85
2021/07/07 01:22:43;;;;;;;;;;;14.20;99.90;;;;;;5118826;28;19941;-86
2021/07/07 01:25:11;;;;;;;;;;;14.20;99.90;;;;;;5101642;28;19920;-86
2021/07/07 01:27:38;;;;;;;;;;;14.20;99.90;;;;;;5097940;28;20259;-86
2021/07/07 01:30:06;;;;;;;;;;;14.20;99.90;;;;;;5097972;28;19934;-86
2021/07/07 01:32:33;;;;;;;;;;;14.20;99.90;;;;;;5098303;28;19926;-86
2021/07/07 01:34:59;;;;;;;;;;;14.20;99.90;;;;;;5097972;28;19934;-86
2021/07/07 01:37:27;;;;;;;;;;;14.20;99.90;;;;;;5098378;28;19920;-86
2021/07/07 01:39:55;;;;;;;;;;;14.20;99.90;;;;;;5098276;28;19920;-86
2021/07/07 01:42:22;;;;;;;;;;;14.30;99.90;;;;;;5097861;28;19920;-86
2021/07/07 01:44:49;;;;;;;;;;;14.30;99.90;;;;;;5098047;28;19920;-86
2021/07/07 01:47:16;;;;;;;;;;;14.30;99.90;;;;;;5097195;28;19927;-85
2021/07/07 01:49:43;;;;;;;;;;;14.30;99.90;;;;;;5097928;28;19919;-86
2021/07/07 01:52:09;;;;;;;;;;;14.30;99.90;;;;;;5097899;28;19930;-86
2021/07/07 01:54:36;;;;;;;;;;;14.40;99.90;;;;;;5097756;28;20259;-86
2021/07/07 01:57:05;;;;;;;;;;;14.30;99.90;;;;;;5097105;28;19934;-86
2021/07/07 01:59:31;;;;;;;;;;;14.40;99.90;;;;;;5097170;28;19920;-85
2021/07/07 02:01:58;;;;;;;;;;;14.40;99.90;;;;;;5097633;28;19920;-83
2021/07/07 02:04:25;;;;;;;;;;;14.40;99.90;;;;;;5097668;28;19924;-85
2021/07/07 02:06:52;;;;;;;;;;;14.40;99.90;;;;;;5097420;28;20248;-85
2021/07/07 02:09:20;;;;;;;;;;;14.40;99.90;;;;;;5097225;28;20333;-86
2021/07/07 02:11:47;;;;;;;;;;;14.40;99.90;;;;;;5097077;28;19920;-86
2021/07/07 02:14:15;;;;;;;;;;;14.40;99.90;;;;;;5097258;28;19931;-86
2021/07/07 02:16:42;;;;;;;;;;;14.40;99.90;;;;;;5097415;28;19930;-87
2021/07/07 02:19:09;;;;;;;;;;;14.40;99.90;;;;;;5097187;28;19930;-87
2021/07/07 02:21:36;;;;;;;;;;;14.40;99.90;;;;;;5097165;28;19924;-87
2021/07/07 02:24:03;;;;;;;;;;;14.40;99.90;;;;;;5097386;28;19920;-86
2021/07/07 02:26:30;;;;;;;;;;;14.50;99.90;;;;;;5097027;28;19920;-87
2021/07/07 02:28:56;;;;;;;;;;;14.50;99.90;;;;;;5097000;28;19920;-86
2021/07/07 02:31:25;;;;;;;;;;;14.50;99.90;;;;;;5097177;28;19930;-87
2021/07/07 02:33:51;;;;;;;;;;;14.50;99.90;;;;;;5097150;28;20336;-87
2021/07/07 02:36:18;;;;;;;;;;;14.40;99.90;;;;;;5096787;28;19926;-87
2021/07/07 02:38:45;;;;;;;;;;;14.40;99.90;;;;;;5097071;28;19930;-86
2021/07/07 02:41:12;;;;;;;;;;;14.40;99.90;;;;;;5096993;28;20271;-87
2021/07/07 02:43:39;;;;;;;;;;;14.40;99.90;;;;;;5096938;28;19942;-87
2021/07/07 02:46:06;;;;;;;;;;;14.40;99.90;;;;;;5096687;28;20359;-87
2021/07/07 02:48:34;;;;;;;;;;;14.40;99.90;;;;;;5096734;28;20661;-87
2021/07/07 02:51:01;;;;;;;;;;;14.40;99.90;;;;;;5096774;28;19926;-87
2021/07/07 02:53:28;;;;;;;;;;;14.40;99.90;;;;;;5096462;28;19934;-87
2021/07/07 02:55:54;;;;;;;;;;;14.40;99.90;;;;;;5096360;28;19919;-86
2021/07/07 02:58:21;;;;;;;;;;;14.40;99.90;;;;;;5096312;28;19920;-87
2021/07/07 03:00:48;;;;;;;;;;;14.40;99.90;;;;;;5096320;28;19937;-87
2021/07/07 03:03:16;;;;;;;;;;;14.40;99.90;;;;;;5096463;28;19938;-87
2021/07/07 03:05:45;;;;;;;;;;;14.40;99.90;;;;;;5096152;28;20247;-86
2021/07/07 03:08:12;;;;;;;;;;;14.40;99.90;;;;;;5096288;28;20014;-87
2021/07/07 03:10:39;;;;;;;;;;;14.40;99.90;;;;;;5096316;28;19919;-86
2021/07/07 03:13:05;;;;;;;;;;;14.40;99.90;;;;;;5096142;28;20252;-87
2021/07/07 03:15:35;;;;;;;;;;;14.40;99.90;;;;;;5096295;28;19919;-87
2021/07/07 03:18:02;;;;;;;;;;;14.40;99.90;;;;;;5096420;28;19967;-87
2021/07/07 03:20:29;;;;;;;;;;;14.40;99.90;;;;;;5096059;28;19920;-87
2021/07/07 03:22:57;;;;;;;;;;;14.40;99.90;;;;;;5095890;28;19920;-87
2021/07/07 03:25:24;;;;;;;;;;;14.40;99.90;;;;;;5096202;28;19920;-87
2021/07/07 03:27:51;;;;;;;;;;;14.40;99.90;;;;;;5096159;28;19920;-87
2021/07/07 03:30:18;;;;;;;;;;;14.40;99.90;;;;;;5096064;28;20237;-87
2021/07/07 03:32:45;;;;;;;;;;;14.40;99.90;;;;;;5095901;28;20309;-86
2021/07/07 03:35:12;;;;;;;;;;;14.40;99.90;;;;;;5095887;28;19920;-86
2021/07/07 03:37:39;;;;;;;;;;;14.40;99.90;;;;;;5096155;28;19920;-86
2021/07/07 03:40:08;;;;;;;;;;;14.40;99.90;;;;;;5095719;28;19934;-87
2021/07/07 03:42:35;;;;;;;;;;;14.40;99.90;;;;;;5095829;28;19919;-86
2021/07/07 03:45:02;;;;;;;;;;;14.50;99.90;;;;;;5095711;28;19920;-87
2021/07/07 03:47:29;;;;;;;;;;;14.50;99.90;;;;;;5095674;28;19934;-86
2021/07/07 03:49:56;;;;;;;;;;;14.50;99.90;;;;;;5095473;28;19927;-87
2021/07/07 03:52:23;;;;;;;;;;;14.50;99.90;;;;;;5095557;28;19930;-86
2021/07/07 03:54:49;;;;;;;;;;;14.50;99.90;;;;;;5095275;28;19920;-86
2021/07/07 03:57:18;;;;;;;;;;;14.50;99.90;;;;;;5095411;28;19920;-81
2021/07/07 03:59:46;;;;;;;;;;;14.50;99.90;;;;;;5100569;28;20343;-80
2021/07/07 04:02:13;;;;;;;;;;;14.50;99.90;;;;;;5106333;28;20364;-80
2021/07/07 04:04:40;;;;;;;;;;;14.50;99.90;;;;;;5104377;28;20328;-80
2021/07/07 04:07:07;;;;;;;;;;;14.50;99.90;;;;;;5095289;28;19920;-80
2021/07/07 04:09:34;;;;;;;;;;;14.50;99.90;;;;;;5094968;28;19923;-78
2021/07/07 04:12:01;;;;;;;;;;;14.50;99.90;;;;;;5095131;28;19920;-81
2021/07/07 04:14:29;;;;;;;;;;;14.40;99.90;;;;;;5095592;28;19987;-79
2021/07/07 04:16:57;;;;;;;;;;;14.50;99.90;;;;;;5095186;28;19920;-81
2021/07/07 04:19:24;;;;;;;;;;;14.50;99.90;;;;;;5095404;28;19930;-80
2021/07/07 04:21:51;;;;;;;;;;;14.50;99.90;;;;;;5095122;28;20256;-81
2021/07/07 04:24:18;;;;;;;;;;;14.50;99.90;;;;;;5095144;28;19926;-80
2021/07/07 04:26:45;;;;;;;;;;;14.50;99.90;;;;;;5094961;28;19920;-79
2021/07/07 04:29:12;;;;;;;;;;;14.50;99.90;;;;;;5095346;28;19920;-81
2021/07/07 04:31:40;;;;;;;;;;;14.50;99.90;;;;;;5095053;28;20340;-81
2021/07/07 04:34:07;;;;;;;;;;;14.50;99.90;;;;;;5095110;28;19923;-80
2021/07/07 04:36:34;;;;;;;;;;;14.50;99.90;;;;;;5089102;28;19923;-79
2021/07/07 04:39:00;;;;;;;;;;;14.50;99.90;;;;;;5093942;28;19920;-81
2021/07/07 04:41:27;;;;;;;;;;;14.50;99.90;;;;;;5094960;28;19924;-81
2021/07/07 04:43:54;;;;;;;;;;;14.60;99.90;;;;;;5094959;28;19920;-80
2021/07/07 04:46:21;;;;;;;;;;;14.50;99.90;;;;;;5094267;28;19920;-80
2021/07/07 04:48:49;;;;;;;;;;;14.60;99.90;;;;;;5094539;28;19946;-81
2021/07/07 04:51:16;;;;;;;;;;;14.50;99.90;;;;;;5094839;28;19928;-81
2021/07/07 04:53:43;;;;;;;;;;;14.50;99.90;;;;;;5095086;28;19920;-81
2021/07/07 04:56:10;;;;;;;;;;;14.60;99.90;;;;;;5094847;28;19931;-81
2021/07/07 04:58:37;;;;;;;;;;;14.60;99.90;;;;;;5095059;28;19934;-81
2021/07/07 05:01:03;;;;;;;;;;;14.60;99.90;;;;;;5094741;28;20025;-80
2021/07/07 05:03:30;;;;;;;;;;;14.60;99.90;;;;;;5094758;28;19930;-80
2021/07/07 05:05:59;;;;;;;;;;;14.60;99.90;;;;;;5094831;28;19935;-80
2021/07/07 05:08:26;;;;;;;;;;;14.60;99.90;;;;;;5094673;28;19920;-80
2021/07/07 05:10:52;;;;;;;;;;;14.60;99.90;;;;;;5094661;28;19920;-80
2021/07/07 05:13:19;;;;;;;;;;;14.60;99.90;;;;;;5094723;28;19920;-81
2021/07/07 05:15:46;;;;;;;;;;;14.60;99.90;;;;;;5095036;28;19931;-79
2021/07/07 05:18:13;;;;;;;;;;;14.60;99.90;;;;;;5094536;28;20414;-80
2021/07/07 05:20:40;;;;;;;;;;;14.70;99.90;;;;;;5094869;28;19919;-81
2021/07/07 05:23:08;;;;;;;;;;;14.70;99.90;;;;;;5097035;28;19927;-81
2021/07/07 05:25:35;;;;;;;;;;;14.70;99.90;;;;;;5098577;28;19920;-80
2021/07/07 05:28:02;;;;;;;;;;;14.60;99.90;;;;;;5098468;28;20340;-80
2021/07/07 05:30:29;;;;;;;;;;;14.70;99.90;;;;;;5098364;28;20344;-80
2021/07/07 05:32:56;;;;;;;;;;;14.70;99.90;;;;;;5098180;28;19920;-79
2021/07/07 05:35:22;;;;;;;;;;;14.70;99.90;;;;;;5098334;28;20011;-79
2021/07/07 05:37:49;;;;;;;;;;;14.70;99.90;;;;;;5097978;28;20270;-80
2021/07/07 05:40:18;;;;;;;;;;;14.70;99.90;;;;;;5097853;28;20397;-80
2021/07/07 05:42:49;;;;;;;;;;;14.70;99.90;;;;;;5098013;28;19920;-81
2021/07/07 05:45:16;;;;;;;;;;;14.70;99.90;;;;;;5097932;28;19932;-80
2021/07/07 05:47:43;;;;;;;;;;;14.70;99.90;;;;;;5097171;28;20014;-81
2021/07/07 05:50:10;;;;;;;;;;;14.70;99.90;;;;;;5098055;28;19920;-82
2021/07/07 05:52:37;;;;;;;;;;;14.80;99.90;;;;;;5097725;28;20355;-80
2021/07/07 05:55:04;;;;;;;;;;;14.80;99.90;;;;;;5097948;28;19920;-81
2021/07/07 05:57:38;;;;;;;;;;;14.80;99.90;;;;;;5097665;28;20332;-80
2021/07/07 06:00:07;;;;;;;;;;;14.90;99.90;;;;;;5097897;28;19945;-80
2021/07/07 06:02:34;;;;;;;;;;;14.90;99.90;;;;;;5097742;28;19920;-79
2021/07/07 06:05:01;;;;;;;;;;;14.90;99.90;;;;;;5097498;28;19926;-81
2021/07/07 06:07:27;;;;;;;;;;;14.90;99.90;;;;;;5097611;28;19930;-79
2021/07/07 06:09:54;;;;;;;;;;;14.90;99.90;;;;;;5097243;28;19938;-79
2021/07/07 06:12:21;;;;;;;;;;;15.00;99.90;;;;;;5097284;28;20276;-79
2021/07/07 06:14:49;;;;;;;;;;;15.00;99.90;;;;;;5097375;28;20374;-80
2021/07/07 06:17:16;;;;;;;;;;;15.10;99.90;;;;;;5097683;28;19919;-80
2021/07/07 06:19:43;;;;;;;;;;;15.10;99.90;;;;;;5097428;28;19920;-81
2021/07/07 06:22:10;;;;;;;;;;;15.10;99.90;;;;;;5097216;28;19997;-81
2021/07/07 06:24:37;;;;;;;;;;;15.20;99.90;;;;;;5097063;28;19927;-81
2021/07/07 06:27:04;;;;;;;;;;;15.30;99.90;;;;;;5097722;28;19923;-80
2021/07/07 06:29:31;;;;;;;;;;;15.30;99.90;;;;;;5097206;28;19920;-80
2021/07/07 06:31:59;;;;;;;;;;;15.30;99.90;;;;;;5096750;28;19919;-80
2021/07/07 06:34:26;;;;;;;;;;;15.30;99.90;;;;;;5096397;28;19920;-80
2021/07/07 06:36:52;;;;;;;;;;;15.30;99.90;;;;;;5096437;28;19919;-79
2021/07/07 06:39:19;;;;;;;;;;;15.30;99.90;;;;;;5096387;28;19923;-80
2021/07/07 06:41:46;;;;;;;;;;;15.30;99.90;;;;;;5096958;28;20028;-81
2021/07/07 06:44:13;;;;;;;;;;;15.30;99.90;;;;;;5096626;28;20267;-80
2021/07/07 06:46:40;;;;;;;;;;;15.30;99.90;;;;;;5096894;28;20251;-81
2021/07/07 06:49:08;;;;;;;;;;;15.40;99.90;;;;;;5096709;28;19920;-81
2021/07/07 06:51:35;;;;;;;;;;;15.40;99.90;;;;;;5096667;28;19930;-81
2021/07/07 06:54:02;;;;;;;;;;;15.40;99.90;;;;;;5096484;28;19938;-81
2021/07/07 06:56:28;;;;;;;;;;;15.40;99.90;;;;;;5096413;28;20332;-80
2021/07/07 06:58:55;;;;;;;;;;;15.40;99.90;;;;;;5096663;28;19920;-81
2021/07/07 07:01:22;;;;;;;;;;;15.50;99.90;;;;;;5096542;28;19932;-81
2021/07/07 07:03:49;;;;;;;;;;;15.50;99.90;;;;;;5096385;28;19920;-81
2021/07/07 07:06:17;;;;;;;;;;;15.50;99.90;;;;;;5096414;28;19942;-80
2021/07/07 07:08:44;;;;;;;;;;;15.50;99.90;;;;;;5096306;28;19930;-81
2021/07/07 07:11:17;;;;;;;;;;;15.50;99.90;;;;;;5096796;28;19920;-80
2021/07/07 07:13:43;;;;;;;;;;;15.60;99.90;;;;;;5096262;28;19973;-81
2021/07/07 07:16:10;;;;;;;;;;;15.60;99.90;;;;;;5096614;28;19924;-81
2021/07/07 07:18:37;;;;;;;;;;;15.60;99.90;;;;;;5096056;28;19919;-81
2021/07/07 07:21:04;;;;;;;;;;;15.60;99.90;;;;;;5096141;28;20237;-81
2021/07/07 07:23:33;;;;;;;;;;;15.60;99.90;;;;;;5095911;28;19934;-81
2021/07/07 07:26:00;;;;;;;;;;;15.60;99.90;;;;;;5095857;28;19997;-81
2021/07/07 07:28:27;;;;;;;;;;;15.60;99.90;;;;;;5095965;28;19927;-81
2021/07/07 07:30:55;;;;;;;;;;;15.60;99.90;;;;;;5096039;28;19920;-81
2021/07/07 07:33:22;;;;;;;;;;;15.70;99.90;;;;;;5096168;28;19919;-81
2021/07/07 07:35:49;;;;;;;;;;;15.70;99.90;;;;;;5095688;28;19920;-80
2021/07/07 07:38:19;;;;;;;;;;;15.70;99.90;;;;;;5096148;28;20015;-81
2021/07/07 07:40:48;;;;;;;;;;;15.80;99.90;;;;;;5095935;28;19969;-81
2021/07/07 07:43:15;;;;;;;;;;;15.90;99.90;;;;;;5095826;28;20233;-81
2021/07/07 07:45:42;;;;;;;;;;;16.00;99.90;;;;;;5095178;28;19920;-81
2021/07/07 07:48:09;;;;;;;;;;;16.00;99.90;;;;;;5095544;28;19920;-81
2021/07/07 07:50:36;;;;;;;;;;;16.10;99.90;;;;;;5095550;28;19926;-81
2021/07/07 07:53:02;;;;;;;;;;;16.20;99.90;;;;;;5095314;28;19969;-82
2021/07/07 07:55:29;;;;;;;;;;;16.10;99.90;;;;;;5095316;28;19980;-81
2021/07/07 07:57:58;;;;;;;;;;;16.00;99.90;;;;;;5095452;28;19920;-81
2021/07/07 08:00:25;;;;;;;;;;;16.00;99.90;;;;;;5095704;28;19919;-81
2021/07/07 08:02:52;;;;;;;;;;;15.90;99.90;;;;;;5095462;28;19924;-82
2021/07/07 08:05:18;;;;;;;;;;;15.80;99.90;;;;;;5095542;28;19930;-83
2021/07/07 08:07:46;;;;;;;;;;;15.80;99.90;;;;;;5095408;28;20332;-82
2021/07/07 08:10:13;;;;;;;;;;;15.70;99.90;;;;;;5095378;28;19931;-82
2021/07/07 08:12:40;;;;;;;;;;;15.70;99.90;;;;;;5095444;28;19920;-82
2021/07/07 08:15:09;;;;;;;;;;;15.70;99.90;;;;;;5095186;28;19919;-80
2021/07/07 08:17:36;;;;;;;;;;;15.60;99.90;;;;;;5095044;28;20369;-80
2021/07/07 08:20:03;;;;;;;;;;;15.50;99.90;;;;;;5095390;28;19931;-82
2021/07/07 08:22:30;;;;;;;;;;;15.50;99.90;;;;;;5095126;28;19920;-83
2021/07/07 08:24:56;;;;;;;;;;;15.50;99.90;;;;;;5094881;28;20012;-83
2021/07/07 08:27:23;;;;;;;;;;;15.40;99.90;;;;;;5095180;28;19920;-84
2021/07/07 08:29:50;;;;;;;;;;;15.40;99.90;;;;;;5095227;28;19920;-83
2021/07/07 08:32:18;;;;;;;;;;;15.40;99.90;;;;;;5094995;28;19942;-81
2021/07/07 08:34:45;;;;;;;;;;;15.40;99.90;;;;;;5095328;28;19990;-83
2021/07/07 08:37:13;;;;;;;;;;;15.40;99.90;;;;;;5095241;28;19924;-83
2021/07/07 08:39:40;;;;;;;;;;;15.40;99.90;;;;;;5095207;28;19920;-83
2021/07/07 08:42:07;;;;;;;;;;;15.50;99.90;;;;;;5095285;28;19931;-83
2021/07/07 08:44:34;;;;;;;;;;;15.60;99.90;;;;;;5095037;28;19920;-84
2021/07/07 08:47:02;;;;;;;;;;;15.70;99.90;;;;;;5094869;28;20346;-83
2021/07/07 08:49:30;;;;;;;;;;;15.80;99.90;;;;;;5094849;28;20347;-83
2021/07/07 08:51:57;;;;;;;;;;;15.90;99.90;;;;;;5094543;28;19926;-84
2021/07/07 08:54:23;;;;;;;;;;;15.90;99.90;;;;;;5095064;28;19946;-84
2021/07/07 08:56:50;;;;;;;;;;;16.00;99.90;;;;;;5095100;28;20259;-83
2021/07/07 08:59:17;;;;;;;;;;;16.10;99.90;;;;;;5098683;28;19927;-83
2021/07/07 09:02:00;;;;;;;;;;;16.20;99.90;;;;;;5098939;28;19930;-83
2021/07/07 09:04:27;;;;;;;;;;;16.40;99.90;;;;;;5098687;28;19930;-84
2021/07/07 09:06:58;;;;;;;;;;;16.50;99.90;;;;;;5098352;28;19920;-83
2021/07/07 09:09:34;;;;;;;;;;;16.60;99.90;;;;;;5098702;28;19957;-83
2021/07/07 09:12:00;;;;;;;;;;;16.70;99.90;;;;;;5098509;28;20259;-83
2021/07/07 09:14:31;;;;;;;;;;;16.90;99.90;;;;;;5098673;28;19926;-83
2021/07/07 09:16:59;;;;;;;;;;;17.00;99.90;;;;;;5098875;28;19920;-83
2021/07/07 09:19:27;;;;;;;;;;;17.10;99.90;;;;;;5098301;28;19920;-83
2021/07/07 09:21:55;;;;;;;;;;;17.20;99.90;;;;;;5098371;28;20318;-82
2021/07/07 09:24:24;;;;;;;;;;;17.20;99.90;;;;;;5098222;28;20015;-82
2021/07/07 09:26:57;;;;;;;;;;;17.30;99.90;;;;;;5098217;28;19920;-82
2021/07/07 09:29:31;;;;;;;;;;;17.30;99.90;;;;;;5098592;28;19920;-82
2021/07/07 09:31:57;;;;;;;;;;;17.30;99.90;;;;;;5098244;28;19931;-82
2021/07/07 09:34:24;;;;;;;;;;;17.30;99.90;;;;;;5098269;28;19920;-82
2021/07/07 09:36:52;;;;;;;;;;;17.20;99.90;;;;;;5098599;28;19920;-82
2021/07/07 09:39:19;;;;;;;;;;;17.00;99.90;;;;;;5097931;28;19920;-81
2021/07/07 09:41:49;;;;;;;;;;;16.80;99.90;;;;;;5098051;28;19919;-82
2021/07/07 09:44:18;;;;;;;;;;;16.80;99.90;;;;;;5098199;28;19920;-82
2021/07/07 09:46:44;;;;;;;;;;;16.80;99.90;;;;;;5097753;28;20261;-81
2021/07/07 09:49:11;;;;;;;;;;;16.80;99.90;;;;;;5097912;28;20244;-82
2021/07/07 09:51:38;;;;;;;;;;;16.80;99.90;;;;;;5098059;28;19928;-81
2021/07/07 09:54:05;;;;;;;;;;;16.80;99.90;;;;;;5098004;28;19919;-81
2021/07/07 09:56:32;;;;;;;;;;;16.90;99.90;;;;;;5097786;28;19920;-81
2021/07/07 09:59:00;;;;;;;;;;;17.00;99.90;;;;;;5097790;28;19920;-82
2021/07/07 10:01:27;;;;;;;;;;;17.10;99.90;;;;;;5097740;28;20291;-81
2021/07/07 10:03:54;;;;;;;;;;;17.10;99.90;;;;;;5097582;28;19919;-81
2021/07/07 10:06:22;;;;;;;;;;;17.10;99.90;;;;;;5097629;28;19920;-82
2021/07/07 10:08:49;;;;;;;;;;;17.20;99.90;;;;;;5097036;28;19927;-81
2021/07/07 10:11:16;;;;;;;;;;;17.30;99.90;;;;;;5097621;28;19920;-81
2021/07/07 10:13:44;;;;;;;;;;;17.40;99.90;;;;;;5097292;28;19924;-82
2021/07/07 10:16:12;;;;;;;;;;;17.50;99.90;;;;;;5096450;28;19920;-82
2021/07/07 10:18:39;;;;;;;;;;;17.60;99.90;;;;;;5097467;28;19930;-82
2021/07/07 10:21:05;;;;;;;;;;;17.60;99.90;;;;;;5097191;28;19942;-82
2021/07/07 10:23:33;;;;;;;;;;;17.50;99.90;;;;;;5097130;28;19927;-82
2021/07/07 10:26:00;;;;;;;;;;;17.50;99.90;;;;;;5097377;28;19938;-81
2021/07/07 10:28:27;;;;;;;;;;;17.60;99.90;;;;;;5097266;28;19920;-82
2021/07/07 10:30:56;;;;;;;;;;;17.60;99.90;;;;;;5097165;28;19924;-82
2021/07/07 10:33:24;;;;;;;;;;;17.70;99.90;;;;;;5097000;28;19926;-82
2021/07/07 10:35:52;;;;;;;;;;;17.80;99.90;;;;;;5097382;28;20014;-82
2021/07/07 10:38:19;;;;;;;;;;;17.90;99.90;;;;;;5097186;28;19930;-82
2021/07/07 10:40:51;;;;;;;;;;;17.80;99.90;;;;;;5097076;28;20255;-82
2021/07/07 10:43:23;;;;;;;;;;;17.70;99.90;;;;;;5096754;28;19985;-82
2021/07/07 10:45:50;;;;;;;;;;;17.50;99.90;;;;;;5096798;28;20248;-82
2021/07/07 10:48:29;;;;;;;;;;;17.30;99.90;;;;;;5096668;28;19919;-82
2021/07/07 10:50:56;;;;;;;;;;;17.20;99.90;;;;;;5096854;28;20247;-81
2021/07/07 10:53:23;;;;;;;;;;;17.20;99.90;;;;;;5097186;28;19930;-82
2021/07/07 10:55:50;;;;;;;;;;;17.10;99.90;;;;;;5096602;28;19920;-81
2021/07/07 10:58:24;;;;;;;;;;;17.10;99.90;;;;;;5096617;28;20272;-81
2021/07/07 11:00:51;;;;;;;;;;;17.10;99.90;;;;;;5096444;28;19926;-82
2021/07/07 11:03:21;;;;;;;;;;;17.30;99.90;;;;;;5096343;28;19919;-81
2021/07/07 11:05:49;;;;;;;;;;;17.20;99.90;;;;;;5096282;28;19920;-81
2021/07/07 11:08:17;;;;;;;;;;;17.20;99.90;;;;;;5095634;28;20011;-81
2021/07/07 11:10:54;;;;;;;;;;;17.20;99.90;;;;;;5095986;28;19923;-81
2021/07/07 11:13:23;;;;;;;;;;;17.20;99.90;;;;;;5092864;28;20142;-81
2021/07/07 11:15:49;;;;;;;;;;;17.20;99.90;;;;;;5096218;28;20326;-81
2021/07/07 11:18:20;;;;;;;;;;;17.20;99.90;;;;;;5096488;28;19924;-81
2021/07/07 11:21:07;;;;;;;;;;;17.20;99.90;;;;;;5095444;28;19963;-81
2021/07/07 11:23:36;;;;;;;;;;;17.40;99.90;;;;;;5096013;28;19951;-81
2021/07/07 11:26:02;;;;;;;;;;;17.60;99.90;;;;;;5095969;28;19928;-81
2021/07/07 11:28:29;;;;;;;;;;;17.90;99.90;;;;;;5096319;28;19934;-81
2021/07/07 11:30:57;;;;;;;;;;;18.00;99.90;;;;;;5096207;28;19923;-81
2021/07/07 11:33:24;;;;;;;;;;;18.10;99.90;;;;;;5096183;28;19939;-81
2021/07/07 11:35:51;;;;;;;;;;;18.20;99.90;;;;;;5095197;28;19924;-80
2021/07/07 11:38:21;;;;;;;;;;;18.20;99.90;;;;;;5089576;28;19985;-80
2021/07/07 11:40:52;;;;;;;;;;;18.30;99.90;;;;;;5095283;28;19924;-80
2021/07/07 11:43:21;;;;;;;;;;;18.30;99.90;;;;;;5095740;28;19928;-80
2021/07/07 11:45:50;;;;;;;;;;;18.40;99.90;;;;;;5096079;28;19980;-81
2021/07/07 11:48:20;;;;;;;;;;;18.50;99.90;;;;;;5095602;28;19924;-80
2021/07/07 11:50:49;;;;;;;;;;;18.50;99.90;;;;;;5095778;28;19924;-81
2021/07/07 11:53:17;;;;;;;;;;;18.60;99.90;;;;;;5094814;28;19924;-80
2021/07/07 11:55:43;;;;;;;;;;;18.60;99.90;;;;;;5094761;28;19924;-80
2021/07/07 11:58:18;;;;;;;;;;;18.60;99.90;;;;;;5094952;28;19920;-80
2021/07/07 12:00:49;;;;;;;;;;;18.60;99.90;;;;;;5094837;28;20367;-81
2021/07/07 12:03:17;;;;;;;;;;;18.60;99.90;;;;;;5092635;28;20268;-80
2021/07/07 12:05:52;;;;;;;;;;;18.60;99.90;;;;;;5094716;28;19928;-79
2021/07/07 12:08:20;;;;;;;;;;;18.60;99.90;;;;;;5093127;28;19934;-80
2021/07/07 12:10:49;;;;;;;;;;;18.70;99.90;;;;;;5095297;28;20328;-81
2021/07/07 12:13:25;;;;;;;;;;;18.70;99.90;;;;;;5095265;28;19924;-81
2021/07/07 12:15:53;;;;;;;;;;;18.70;99.90;;;;;;5095200;28;19990;-81
2021/07/07 12:18:27;;;;;;;;;;;18.70;99.90;;;;;;5095155;28;19924;-81
2021/07/07 12:20:54;;;;;;;;;;;18.70;99.90;;;;;;5095104;28;19924;-80
2021/07/07 12:23:23;;;;;;;;;;;18.70;99.90;;;;;;5095291;28;19924;-80
2021/07/07 12:25:59;;;;;;;;;;;18.80;99.90;;;;;;5094312;28;19925;-80
2021/07/07 12:28:27;;;;;;;;;;;18.80;99.90;;;;;;5094560;28;19934;-80
2021/07/07 12:30:56;;;;;;;;;;;18.80;99.90;;;;;;5094880;28;19924;-80
2021/07/07 12:33:24;;;;;;;;;;;18.70;99.90;;;;;;5099100;28;19924;-80
2021/07/07 12:35:51;;;;;;;;;;;18.60;99.90;;;;;;5098890;28;19924;-80
2021/07/07 12:38:19;;;;;;;;;;;18.60;99.90;;;;;;5099208;28;20023;-80
2021/07/07 12:40:53;;;;;;;;;;;18.60;99.90;;;;;;5099134;28;19924;-80
2021/07/07 12:43:27;;;;;;;;;;;18.70;99.90;;;;;;5099145;28;19982;-80
2021/07/07 12:46:05;;;;;;;;;;;18.70;99.90;;;;;;5099398;28;19924;-81
2021/07/07 12:48:48;;;;;;;;;;;18.70;99.90;;;;;;5099070;28;20229;-80
2021/07/07 12:51:19;;;;;;;;;;;18.80;99.90;;;;;;5099044;28;19934;-81
2021/07/07 12:53:46;;;;;;;;;;;18.80;99.90;;;;;;5098830;28;19934;-80
2021/07/07 12:56:13;;;;;;;;;;;18.80;99.90;;;;;;5099142;28;19935;-80
2021/07/07 12:58:40;;;;;;;;;;;18.80;99.90;;;;;;5097976;28;19935;-80
2021/07/07 13:01:20;;;;;;;;;;;18.70;99.90;;;;;;5098977;28;19931;-81
2021/07/07 13:03:47;;;;;;;;;;;18.70;99.90;;;;;;5098883;28;19934;-80
2021/07/07 13:06:19;;;;;;;;;;;18.60;99.90;;;;;;5098971;28;19924;-81
2021/07/07 13:08:47;;;;;;;;;;;18.40;99.90;;;;;;5098699;28;19924;-81
2021/07/07 13:11:16;;;;;;;;;;;18.30;99.90;;;;;;5098848;28;19932;-81
2021/07/07 13:13:43;;;;;;;;;;;18.20;99.90;;;;;;5098654;28;19934;-81
2021/07/07 13:16:14;;;;;;;;;;;18.00;99.90;;;;;;5098583;28;19950;-81
2021/07/07 13:19:07;;;;;;;;;;;17.90;99.90;;;;;;5098172;28;20253;-80
2021/07/07 13:21:37;;;;;;;;;;;17.90;99.90;;;;;;5076771;28;19924;-81
2021/07/07 13:24:04;;;;;;;;;;;17.80;99.90;;;;;;5076381;28;19925;-81
2021/07/07 13:26:37;;;;;;;;;;;17.80;99.90;;;;;;5076402;28;19925;-81
2021/07/07 13:29:17;;;;;;;;;;;17.80;99.90;;;;;;5073817;28;19935;-81
2021/07/07 13:31:44;;;;;;;;;;;17.80;99.90;;;;;;5076333;28;20288;-81
2021/07/07 13:34:11;;;;;;;;;;;17.70;99.90;;;;;;5076435;28;19924;-81
2021/07/07 13:36:39;;;;;;;;;;;17.70;99.90;;;;;;5076274;28;19924;-81
2021/07/07 13:39:07;;;;;;;;;;;17.60;99.90;;;;;;5076079;28;20268;-81
2021/07/07 13:41:33;;;;;;;;;;;17.60;99.90;;;;;;5076044;28;19934;-80
2021/07/07 13:44:00;;;;;;;;;;;17.60;99.90;;;;;;5075103;28;19924;-81
2021/07/07 13:46:27;;;;;;;;;;;17.60;99.90;;;;;;5075974;28;20275;-81
2021/07/07 13:48:54;;;;;;;;;;;17.60;99.90;;;;;;5076028;28;19925;-81
2021/07/07 13:51:21;;;;;;;;;;;17.60;99.90;;;;;;5075784;28;20018;-81
2021/07/07 13:53:49;;;;;;;;;;;17.60;99.90;;;;;;5075873;28;19924;-81
2021/07/07 13:56:16;;;;;;;;;;;17.70;99.90;;;;;;5077224;28;19928;-82
2021/07/07 13:58:43;;;;;;;;;;;17.70;99.90;;;;;;5097706;28;19928;-81
2021/07/07 14:01:11;;;;;;;;;;;17.70;99.90;;;;;;5097687;28;19924;-81
2021/07/07 14:03:38;;;;;;;;;;;17.70;99.90;;;;;;5097605;28;19924;-81
2021/07/07 14:06:04;;;;;;;;;;;17.80;99.90;;;;;;5097619;28;19930;-81
2021/07/07 14:08:32;;;;;;;;;;;17.80;99.90;;;;;;5097434;28;19924;-81
2021/07/07 14:11:01;;;;;;;;;;;17.80;99.90;;;;;;5097280;28;19938;-81
2021/07/07 14:13:28;;;;;;;;;;;17.90;99.90;;;;;;5097239;28;20240;-81
2021/07/07 14:15:56;;;;;;;;;;;17.90;99.90;;;;;;5097526;28;20024;-81
2021/07/07 14:18:23;;;;;;;;;;;17.90;99.90;;;;;;5097421;28;19924;-81
2021/07/07 14:20:49;;;;;;;;;;;17.80;99.90;;;;;;5097174;28;19924;-81